createdAt,value
2022-09-16T00:02:14.294Z,17.02
2022-09-16T00:04:43.470Z,16.99
2022-09-16T00:07:14.681Z,16.96
2022-09-16T00:09:48.315Z,16.95
2022-09-16T00:12:16.391Z,16.93
2022-09-16T00:14:44.431Z,16.89
2022-09-16T00:17:23.995Z,16.87
2022-09-16T00:19:52.181Z,16.86
2022-09-16T00:22:21.334Z,16.85
2022-09-16T00:24:49.899Z,16.85
2022-09-16T00:27:17.991Z,16.86
2022-09-16T00:29:46.196Z,16.85
2022-09-16T00:32:14.374Z,16.85
2022-09-16T00:34:46.096Z,16.86
2022-09-16T00:37:15.427Z,16.85
2022-09-16T00:39:43.784Z,16.83
2022-09-16T00:42:12.364Z,16.80
2022-09-16T00:45:04.469Z,16.77
2022-09-16T00:47:38.394Z,16.73
2022-09-16T00:50:36.550Z,16.67
2022-09-16T00:53:14.150Z,16.63
2022-09-16T00:55:45.433Z,16.57
2022-09-16T00:58:19.579Z,16.52
2022-09-16T01:00:51.319Z,16.49
2022-09-16T01:03:28.234Z,16.45
2022-09-16T01:05:56.385Z,16.42
2022-09-16T01:08:25.985Z,16.39
2022-09-16T01:10:54.048Z,16.39
2022-09-16T01:13:26.380Z,16.40
2022-09-16T01:16:04.555Z,16.40
2022-09-16T01:18:35.181Z,16.42
2022-09-16T01:21:05.957Z,16.44
2022-09-16T01:23:52.781Z,16.46
2022-09-16T01:26:27.944Z,16.46
2022-09-16T01:28:58.796Z,16.45
2022-09-16T01:31:40.043Z,16.46
2022-09-16T01:34:24.409Z,16.47
2022-09-16T01:37:13.108Z,16.46
2022-09-16T01:40:10.369Z,16.46
2022-09-16T01:42:38.505Z,16.45
2022-09-16T01:45:17.588Z,16.44
2022-09-16T01:48:06.597Z,16.43
2022-09-16T01:50:40.534Z,16.38
2022-09-16T01:53:17.147Z,16.36
2022-09-16T01:55:58.561Z,16.33
2022-09-16T01:58:43.736Z,16.26
2022-09-16T02:01:26.315Z,16.20
2022-09-16T02:04:00.618Z,16.16
2022-09-16T02:06:30.515Z,16.10
2022-09-16T02:09:05.308Z,16.04
2022-09-16T02:11:38.562Z,16.00
2022-09-16T02:14:16.115Z,15.96
2022-09-16T02:16:58.586Z,15.93
2022-09-16T02:19:37.982Z,15.88
2022-09-16T02:22:09.543Z,15.83
2022-09-16T02:24:39.599Z,15.80
2022-09-16T02:27:10.911Z,15.78
2022-09-16T02:29:44.354Z,15.76
2022-09-16T02:32:21.654Z,15.76
2022-09-16T02:34:51.635Z,15.75
2022-09-16T02:37:24.250Z,15.75
2022-09-16T02:39:59.834Z,15.75
2022-09-16T02:42:28.973Z,15.75
2022-09-16T02:45:00.844Z,15.76
2022-09-16T02:47:35.521Z,15.74
2022-09-16T02:50:35.031Z,15.73
2022-09-16T02:53:08.073Z,15.74
2022-09-16T02:55:44.877Z,15.73
2022-09-16T02:58:13.111Z,15.72
2022-09-16T03:00:49.422Z,15.70
2022-09-16T03:03:17.722Z,15.67
2022-09-16T03:06:01.335Z,15.63
2022-09-16T03:08:29.426Z,15.60
2022-09-16T03:10:59.258Z,15.58
2022-09-16T03:13:40.797Z,15.54
2022-09-16T03:16:33.025Z,15.51
2022-09-16T03:19:24.220Z,15.46
2022-09-16T03:22:11.825Z,15.43
2022-09-16T03:24:44.576Z,15.40
2022-09-16T03:27:16.965Z,15.35
2022-09-16T03:29:57.741Z,15.35
2022-09-16T03:32:33.588Z,15.33
2022-09-16T03:35:20.393Z,15.32
2022-09-16T03:37:53.091Z,15.32
2022-09-16T03:40:21.550Z,15.32
2022-09-16T03:42:53.783Z,15.33
2022-09-16T03:45:26.483Z,15.34
2022-09-16T03:48:00.303Z,15.33
2022-09-16T03:50:29.526Z,15.33
2022-09-16T03:53:02.678Z,15.31
2022-09-16T03:55:30.732Z,15.31
2022-09-16T03:58:02.449Z,15.30
2022-09-16T04:00:35.314Z,15.30
2022-09-16T04:03:12.558Z,15.28
2022-09-16T04:05:42.895Z,15.28
2022-09-16T04:08:15.051Z,15.27
2022-09-16T04:10:52.852Z,15.26
2022-09-16T04:13:34.706Z,15.24
2022-09-16T04:16:08.477Z,15.23
2022-09-16T04:18:37.940Z,15.24
2022-09-16T04:21:10.413Z,15.24
2022-09-16T04:23:45.574Z,15.25
2022-09-16T04:26:21.712Z,15.25
2022-09-16T04:28:56.617Z,15.25
2022-09-16T04:31:25.981Z,15.26
2022-09-16T04:33:54.192Z,15.28
2022-09-16T04:36:23.115Z,15.33
2022-09-16T04:38:52.512Z,15.39
2022-09-16T04:41:30.814Z,15.49
2022-09-16T04:44:03.197Z,15.66
2022-09-16T04:46:59.943Z,15.90
2022-09-16T04:52:58.597Z,16.51
2022-09-16T07:51:52.060Z,34.60
2022-09-16T07:54:21.856Z,34.85
2022-09-16T07:57:13.330Z,35.05
2022-09-16T08:14:28.665Z,36.20
2022-09-16T08:16:56.726Z,36.23
2022-09-16T08:27:24.885Z,35.46
2022-09-16T08:30:11.200Z,34.71
2022-09-16T08:32:39.566Z,34.55
2022-09-16T08:35:09.501Z,34.64
2022-09-16T08:37:39.987Z,34.53
2022-09-16T08:40:19.067Z,34.53
2022-09-16T08:43:12.739Z,34.71
2022-09-16T08:45:51.094Z,34.67
2022-09-16T08:49:01.795Z,34.74
2022-09-16T08:51:55.481Z,34.93
2022-09-16T09:48:04.599Z,36.45
2022-09-16T09:51:03.961Z,36.08
2022-09-16T09:57:27.745Z,36.02
2022-09-16T10:03:56.329Z,36.32
2022-09-16T10:06:29.110Z,36.57
2022-09-16T10:17:19.946Z,37.18
2022-09-16T10:27:22.290Z,37.03
2022-09-16T10:30:42.740Z,37.55
2022-09-16T10:50:52.448Z,37.03
2022-09-16T10:53:30.684Z,36.89
2022-09-16T10:56:03.614Z,36.72
2022-09-16T10:58:32.515Z,36.14
2022-09-16T11:01:08.884Z,35.62
2022-09-16T11:03:55.871Z,35.62
2022-09-16T11:06:52.974Z,35.86
2022-09-16T11:09:36.648Z,36.00
2022-09-16T11:19:12.275Z,36.52
2022-09-16T11:22:16.737Z,36.31
2022-09-16T11:25:52.877Z,35.62
2022-09-16T11:29:27.391Z,35.02
2022-09-16T11:52:42.121Z,31.60
2022-09-16T11:55:28.357Z,31.27
2022-09-16T12:01:35.666Z,30.90
2022-09-16T12:04:13.849Z,30.99
2022-09-16T12:06:54.155Z,31.10
2022-09-16T12:09:27.225Z,31.14
2022-09-16T12:12:06.604Z,30.99
2022-09-16T12:14:38.215Z,30.90
2022-09-16T12:17:14.985Z,30.71
2022-09-16T12:20:03.566Z,30.38
2022-09-16T12:22:44.809Z,30.05
2022-09-16T12:25:17.636Z,29.83
2022-09-16T12:27:48.617Z,29.71
2022-09-16T12:30:20.749Z,29.60
2022-09-16T12:33:06.330Z,29.39
2022-09-16T12:35:38.188Z,29.32
2022-09-16T12:38:10.668Z,29.36
2022-09-16T12:40:49.006Z,29.47
2022-09-16T12:43:19.737Z,29.49
2022-09-16T12:46:35.781Z,29.50
2022-09-16T12:50:38.609Z,29.48
2022-09-16T12:54:05.521Z,29.50
2022-09-16T13:09:22.134Z,28.86
2022-09-16T13:12:39.215Z,28.84
2022-09-16T13:15:02.502Z,28.70
2022-09-16T13:17:39.387Z,28.68
2022-09-16T13:20:33.541Z,28.59
2022-09-16T13:23:08.428Z,28.56
2022-09-16T13:26:43.190Z,28.34
2022-09-16T13:29:30.707Z,28.24
2022-09-16T13:39:54.298Z,27.61
2022-09-16T13:43:33.078Z,27.48
2022-09-16T13:46:11.830Z,27.36
2022-09-16T13:48:44.507Z,27.33
2022-09-16T13:51:18.583Z,27.29
2022-09-16T13:57:45.756Z,27.28
2022-09-16T14:20:02.257Z,26.78
2022-09-16T15:12:09.981Z,25.77
2022-09-16T15:19:20.339Z,25.63
2022-09-16T15:22:05.566Z,25.58
2022-09-16T15:46:57.557Z,25.12
2022-09-16T15:53:24.509Z,24.97
2022-09-16T15:56:50.125Z,24.86
2022-09-16T15:59:26.089Z,24.78
2022-09-16T16:02:26.646Z,24.73
2022-09-16T16:05:05.518Z,24.64
2022-09-16T16:07:47.596Z,24.56
2022-09-16T16:10:19.199Z,24.50
2022-09-16T16:12:49.504Z,24.42
2022-09-16T16:15:20.404Z,24.36
2022-09-16T16:17:50.839Z,24.30
2022-09-16T16:20:21.144Z,24.24
2022-09-16T16:22:50.616Z,24.16
2022-09-16T16:25:21.348Z,24.08
2022-09-16T16:27:52.048Z,24.03
2022-09-16T16:30:24.809Z,23.98
2022-09-16T16:32:53.054Z,23.95
2022-09-16T16:35:21.367Z,23.90
2022-09-16T16:38:10.513Z,23.87
2022-09-16T16:40:54.001Z,23.84
2022-09-16T16:43:24.076Z,23.81
2022-09-16T16:45:57.190Z,23.77
2022-09-16T16:48:27.301Z,23.74
2022-09-16T16:51:08.898Z,23.72
2022-09-16T16:53:37.465Z,23.69
2022-09-16T16:56:14.485Z,23.66
2022-09-16T16:58:45.771Z,23.63
2022-09-16T17:01:18.574Z,23.60
2022-09-16T17:11:20.160Z,23.23
2022-09-16T17:13:58.328Z,22.97
2022-09-16T17:16:51.822Z,22.74
2022-09-16T17:19:20.149Z,22.41
2022-09-16T17:21:51.466Z,22.04
2022-09-16T17:24:20.172Z,21.59
2022-09-16T17:26:48.483Z,21.29
2022-09-16T17:29:36.724Z,20.99
2022-09-16T17:32:08.449Z,20.59
2022-09-16T17:50:23.086Z,19.76
2022-09-16T17:52:54.622Z,19.56
2022-09-16T17:55:48.957Z,19.48
2022-09-16T17:58:44.266Z,19.41
2022-09-16T18:01:40.353Z,19.35
2022-09-16T18:05:01.471Z,19.30
2022-09-16T18:07:58.266Z,19.23
2022-09-16T18:11:14.197Z,19.17
2022-09-16T18:13:44.044Z,19.09
2022-09-16T18:16:18.095Z,19.04
2022-09-16T18:18:50.097Z,19.01
2022-09-16T18:21:20.562Z,18.98
2022-09-16T18:24:14.735Z,18.93
2022-09-16T18:26:44.614Z,18.91
2022-09-16T18:29:14.051Z,18.87
2022-09-16T18:31:46.383Z,18.82
2022-09-16T18:34:17.897Z,18.76
2022-09-16T18:36:46.085Z,18.70
2022-09-16T18:39:15.380Z,18.62
2022-09-16T18:41:45.332Z,18.56
2022-09-16T18:44:21.060Z,18.50
2022-09-16T18:46:50.112Z,18.40
2022-09-16T18:49:24.348Z,18.33
2022-09-16T18:51:53.822Z,18.28
2022-09-16T18:54:44.201Z,18.24
2022-09-16T18:57:32.853Z,18.20
2022-09-16T19:00:01.885Z,18.17
2022-09-16T19:16:37.306Z,18.00
2022-09-16T19:19:08.782Z,17.97
2022-09-16T19:21:46.420Z,17.91
2022-09-16T19:27:48.382Z,17.85
2022-09-16T19:30:50.332Z,17.83
2022-09-16T19:33:19.461Z,17.81
2022-09-16T19:35:47.960Z,17.79
2022-09-16T19:42:29.573Z,17.70
2022-09-16T19:44:57.833Z,17.66
2022-09-16T19:47:26.669Z,17.63
2022-09-16T19:57:33.059Z,17.60
2022-09-16T20:00:02.047Z,17.59
2022-09-16T20:02:42.943Z,17.58
2022-09-16T20:05:13.764Z,17.59
2022-09-16T20:07:41.895Z,17.59
2022-09-16T20:10:10.216Z,17.57
2022-09-16T20:12:42.910Z,17.56
2022-09-16T20:15:12.338Z,17.54
2022-09-16T20:17:40.490Z,17.51
2022-09-16T20:20:09.053Z,17.49
2022-09-16T20:22:37.141Z,17.44
2022-09-16T20:25:22.597Z,17.40
2022-09-16T20:27:52.014Z,17.38
2022-09-16T20:30:20.051Z,17.36
2022-09-16T20:33:04.719Z,17.35
2022-09-16T20:35:34.213Z,17.31
2022-09-16T20:38:02.621Z,17.28
2022-09-16T20:40:32.435Z,17.24
2022-09-16T20:43:18.087Z,17.23
2022-09-16T20:45:46.605Z,17.21
2022-09-16T20:48:14.785Z,17.15
2022-09-16T20:51:24.442Z,17.11
2022-09-16T20:53:57.791Z,17.06
2022-09-16T20:56:37.967Z,17.03
2022-09-16T20:59:07.790Z,16.99
2022-09-16T21:01:38.387Z,16.96
2022-09-16T21:04:07.773Z,16.95
2022-09-16T21:06:37.567Z,16.92
2022-09-16T21:09:14.005Z,16.90
2022-09-16T21:11:45.358Z,16.89
2022-09-16T21:14:15.478Z,16.88
2022-09-16T21:16:45.732Z,16.86
2022-09-16T21:19:14.453Z,16.86
2022-09-16T21:21:46.560Z,16.84
2022-09-16T21:24:36.340Z,16.84
2022-09-16T21:27:04.800Z,16.84
2022-09-16T21:29:32.998Z,16.84
2022-09-16T21:32:01.386Z,16.84
2022-09-16T21:34:29.814Z,16.84
2022-09-16T21:36:59.661Z,16.82
2022-09-16T21:39:53.427Z,16.80
2022-09-16T21:42:36.118Z,16.80
2022-09-16T21:45:06.235Z,16.80
2022-09-16T21:47:34.445Z,16.78
2022-09-16T21:50:05.400Z,16.78
2022-09-16T21:52:33.961Z,16.79
2022-09-16T21:55:03.189Z,16.78
2022-09-16T21:57:42.972Z,16.77
2022-09-16T22:00:16.303Z,16.77
2022-09-16T22:02:54.557Z,16.76
2022-09-16T22:05:46.800Z,16.75
2022-09-16T22:08:16.116Z,16.73
2022-09-16T22:10:45.321Z,16.70
2022-09-16T22:13:13.333Z,16.68
2022-09-16T22:15:49.154Z,16.67
2022-09-16T22:18:18.311Z,16.65
2022-09-16T22:21:06.078Z,16.64
2022-09-16T22:23:34.704Z,16.63
2022-09-16T22:26:12.899Z,16.62
2022-09-16T22:28:41.620Z,16.62
2022-09-16T22:31:09.657Z,16.61
2022-09-16T22:33:39.597Z,16.60
2022-09-16T22:36:10.129Z,16.61
2022-09-16T22:38:38.430Z,16.61
2022-09-16T22:41:07.755Z,16.64
2022-09-16T22:43:40.892Z,16.65
2022-09-16T22:46:10.156Z,16.68
2022-09-16T22:48:39.002Z,16.70
2022-09-16T22:51:08.325Z,16.72
2022-09-16T22:53:37.850Z,16.73
2022-09-16T22:56:26.868Z,16.75
2022-09-16T22:58:55.505Z,16.76
2022-09-16T23:01:25.540Z,16.77
2022-09-16T23:03:58.027Z,16.76
2022-09-16T23:06:27.105Z,16.74
2022-09-16T23:08:55.146Z,16.73
2022-09-16T23:11:26.970Z,16.71
2022-09-16T23:13:55.825Z,16.69
2022-09-16T23:16:28.823Z,16.68
2022-09-16T23:18:58.087Z,16.65
2022-09-16T23:21:27.689Z,16.61
2022-09-16T23:23:56.675Z,16.61
2022-09-16T23:26:29.951Z,16.57
2022-09-16T23:28:59.005Z,16.53
2022-09-16T23:31:28.963Z,16.47
2022-09-16T23:33:57.119Z,16.43
2022-09-16T23:36:26.234Z,16.39
2022-09-16T23:38:54.752Z,16.35
2022-09-16T23:41:24.837Z,16.32
2022-09-16T23:43:53.262Z,16.26
2022-09-16T23:46:23.114Z,16.23
2022-09-16T23:48:54.120Z,16.18
2022-09-16T23:51:28.078Z,16.13
2022-09-16T23:53:57.682Z,16.09
2022-09-16T23:56:26.132Z,16.05
2022-09-16T23:58:58.049Z,16.01
